createdAt,value
2022-08-04T00:00:27.171Z,2.10
2022-08-04T00:03:05.873Z,2.20
2022-08-04T00:06:06.446Z,2.10
2022-08-04T00:08:49.860Z,2.10
2022-08-04T00:11:22.679Z,1.98
2022-08-04T00:14:02.760Z,2.22
2022-08-04T00:16:38.526Z,2.22
2022-08-04T00:19:31.286Z,2.40
2022-08-04T00:22:04.528Z,2.50
2022-08-04T00:24:31.935Z,2.60
2022-08-04T00:26:58.752Z,2.10
2022-08-04T00:29:27.628Z,2.10
2022-08-04T00:31:57.853Z,2.17
2022-08-04T00:34:29.621Z,2.33
2022-08-04T00:36:58.026Z,2.08
2022-08-04T00:39:25.950Z,2.55
2022-08-04T00:42:16.836Z,2.38
2022-08-04T00:44:43.424Z,2.38
2022-08-04T00:47:27.362Z,2.63
2022-08-04T00:50:08.173Z,2.50
2022-08-04T00:52:47.050Z,2.30
2022-08-04T00:55:27.883Z,2.17
2022-08-04T00:58:06.624Z,2.03
2022-08-04T01:01:02.496Z,1.98
2022-08-04T01:04:03.032Z,2.28
2022-08-04T01:06:56.050Z,2.13
2022-08-04T01:09:42.091Z,2.58
2022-08-04T01:12:09.380Z,2.03
2022-08-04T01:15:05.717Z,2.20
2022-08-04T01:18:09.178Z,2.15
2022-08-04T01:20:55.195Z,1.92
2022-08-04T01:23:24.851Z,2.33
2022-08-04T01:26:00.289Z,2.53
2022-08-04T01:28:30.981Z,2.22
2022-08-04T01:31:07.252Z,2.10
2022-08-04T01:34:03.556Z,2.15
2022-08-04T01:36:34.296Z,2.15
2022-08-04T01:39:21.702Z,2.10
2022-08-04T01:41:57.672Z,2.38
2022-08-04T01:44:29.139Z,2.38
2022-08-04T01:46:55.836Z,2.03
2022-08-04T01:49:28.192Z,2.28
2022-08-04T01:51:56.140Z,2.42
2022-08-04T01:54:23.756Z,2.40
2022-08-04T01:56:51.266Z,2.30
2022-08-04T01:59:19.718Z,2.80
2022-08-04T02:01:47.376Z,2.47
2022-08-04T02:04:19.435Z,2.10
2022-08-04T02:06:54.948Z,2.25
2022-08-04T02:09:30.353Z,2.50
2022-08-04T02:12:27.445Z,2.35
2022-08-04T02:14:59.716Z,2.35
2022-08-04T02:17:39.197Z,2.15
2022-08-04T02:20:12.121Z,2.22
2022-08-04T02:23:05.142Z,2.00
2022-08-04T02:25:48.973Z,2.20
2022-08-04T02:28:22.799Z,2.17
2022-08-04T02:31:13.014Z,2.10
2022-08-04T02:33:43.308Z,2.38
2022-08-04T02:36:17.633Z,2.50
2022-08-04T02:38:50.262Z,2.08
2022-08-04T02:41:18.262Z,2.47
2022-08-04T02:43:51.229Z,2.42
2022-08-04T02:46:21.168Z,1.83
2022-08-04T02:48:50.371Z,2.10
2022-08-04T02:51:25.009Z,2.42
2022-08-04T02:53:54.331Z,2.38
2022-08-04T02:56:22.428Z,1.90
2022-08-04T02:58:58.232Z,2.10
2022-08-04T03:01:25.096Z,2.60
2022-08-04T03:04:04.247Z,2.20
2022-08-04T03:06:58.266Z,2.50
2022-08-04T03:09:59.000Z,2.40
2022-08-04T03:13:03.224Z,1.90
2022-08-04T03:15:40.723Z,2.10
2022-08-04T03:18:45.171Z,2.63
2022-08-04T03:21:14.764Z,2.35
2022-08-04T03:24:00.017Z,2.42
2022-08-04T03:26:48.514Z,2.27
2022-08-04T03:29:50.428Z,2.15
2022-08-04T03:32:54.409Z,2.10
2022-08-04T03:35:51.662Z,1.77
2022-08-04T03:38:37.465Z,2.10
2022-08-04T03:41:51.823Z,2.28
2022-08-04T03:44:43.423Z,2.03
2022-08-04T03:48:04.038Z,2.22
2022-08-04T03:50:34.727Z,2.28
2022-08-04T03:53:21.578Z,2.17
2022-08-04T03:55:54.170Z,2.00
2022-08-04T03:58:38.163Z,1.98
2022-08-04T04:01:17.045Z,2.05
2022-08-04T04:03:52.637Z,2.20
2022-08-04T04:06:41.472Z,2.47
2022-08-04T04:09:30.058Z,2.35
2022-08-04T04:12:34.034Z,3.03
2022-08-04T04:15:03.718Z,2.50
2022-08-04T04:17:37.563Z,3.00
2022-08-04T04:20:14.116Z,2.70
2022-08-04T04:23:14.502Z,2.67
2022-08-04T04:26:19.806Z,3.00
2022-08-04T04:29:07.679Z,2.80
2022-08-04T04:31:41.818Z,3.13
2022-08-04T04:34:46.442Z,3.20
2022-08-04T04:37:26.835Z,2.95
2022-08-04T04:57:54.611Z,2.30
2022-08-04T05:00:25.285Z,2.40
2022-08-04T05:03:22.928Z,2.28
2022-08-04T05:06:16.580Z,2.38
2022-08-04T05:08:54.396Z,2.17
2022-08-04T05:11:36.609Z,2.10
2022-08-04T05:14:37.201Z,1.88
2022-08-04T05:17:02.029Z,2.50
2022-08-04T05:19:37.843Z,1.90
2022-08-04T05:22:14.681Z,2.00
2022-08-04T05:24:46.204Z,1.95
2022-08-04T05:27:20.141Z,2.10
2022-08-04T05:29:53.462Z,1.80
2022-08-04T05:32:26.715Z,1.98
2022-08-04T05:35:00.367Z,1.88
2022-08-04T05:37:30.333Z,2.30
2022-08-04T05:40:00.988Z,1.88
2022-08-04T05:42:29.084Z,1.85
2022-08-04T05:44:56.567Z,1.80
2022-08-04T05:47:25.154Z,1.80
2022-08-04T05:50:01.406Z,1.77
2022-08-04T05:52:30.801Z,1.63
2022-08-04T05:54:59.270Z,1.85
2022-08-04T05:57:26.863Z,2.10
2022-08-04T05:59:57.094Z,1.85
2022-08-04T06:02:24.691Z,1.90
2022-08-04T06:04:53.276Z,2.08
2022-08-04T06:07:20.416Z,2.00
2022-08-04T06:09:47.611Z,2.17
2022-08-04T06:12:26.592Z,2.10
2022-08-04T06:14:59.393Z,2.10
2022-08-04T06:18:35.524Z,1.90
2022-08-04T06:20:23.245Z,2.00
2022-08-04T06:22:54.744Z,1.90
2022-08-04T06:25:25.689Z,1.80
2022-08-04T06:27:53.422Z,2.05
2022-08-04T06:30:21.305Z,1.92
2022-08-04T06:33:04.125Z,1.85
2022-08-04T06:35:33.382Z,1.90
2022-08-04T06:38:01.741Z,1.75
2022-08-04T06:40:33.170Z,2.17
2022-08-04T06:43:03.052Z,1.92
2022-08-04T06:45:31.225Z,1.63
2022-08-04T06:48:00.190Z,2.00
2022-08-04T06:51:28.203Z,1.90
2022-08-04T06:53:14.921Z,1.80
2022-08-04T06:55:45.161Z,2.08
2022-08-04T06:58:12.918Z,2.00
2022-08-04T07:00:41.848Z,1.63
2022-08-04T07:03:08.660Z,1.50
2022-08-04T07:05:36.221Z,2.22
2022-08-04T07:08:04.001Z,2.05
2022-08-04T07:10:31.669Z,2.00
2022-08-04T07:13:00.381Z,1.65
2022-08-04T07:15:28.236Z,2.00
2022-08-04T07:18:01.410Z,1.58
2022-08-04T07:20:34.148Z,1.80
2022-08-04T07:23:05.616Z,2.00
2022-08-04T07:26:00.794Z,1.80
2022-08-04T07:28:23.509Z,1.80
2022-08-04T07:30:50.775Z,1.90
2022-08-04T07:33:18.448Z,2.08
2022-08-04T07:36:10.153Z,1.40
2022-08-04T07:38:37.607Z,1.77
2022-08-04T07:41:35.618Z,1.95
2022-08-04T07:44:03.967Z,1.70
2022-08-04T07:46:31.510Z,1.50
2022-08-04T07:49:03.611Z,1.65
2022-08-04T07:51:31.460Z,1.58
2022-08-04T07:54:00.366Z,2.05
2022-08-04T07:56:27.858Z,2.20
2022-08-04T07:58:55.400Z,1.88
2022-08-04T08:01:26.123Z,2.25
2022-08-04T08:03:55.300Z,1.80
2022-08-04T08:06:32.729Z,2.05
2022-08-04T08:09:13.765Z,2.13
2022-08-04T08:12:38.168Z,1.80
2022-08-04T08:14:35.551Z,1.42
2022-08-04T08:17:03.326Z,1.50
2022-08-04T08:19:34.873Z,1.83
2022-08-04T08:22:02.952Z,2.10
2022-08-04T08:24:31.835Z,1.98
2022-08-04T08:27:00.410Z,1.80
2022-08-04T08:29:29.571Z,1.83
2022-08-04T08:32:01.388Z,1.60
2022-08-04T08:34:33.008Z,1.60
2022-08-04T08:37:09.744Z,1.65
2022-08-04T08:39:42.501Z,1.70
2022-08-04T08:42:35.751Z,1.63
2022-08-04T08:45:18.204Z,1.90
2022-08-04T08:48:06.375Z,1.80
2022-08-04T08:51:08.265Z,2.30
2022-08-04T08:54:07.271Z,1.70
2022-08-04T08:56:46.062Z,1.55
2022-08-04T08:59:44.957Z,1.63
2022-08-04T09:02:36.429Z,1.80
2022-08-04T09:05:03.164Z,1.90
2022-08-04T09:07:41.894Z,1.50
2022-08-04T09:10:27.072Z,1.70
2022-08-04T09:13:26.821Z,1.90
2022-08-04T09:16:12.889Z,1.88
2022-08-04T09:19:08.641Z,1.63
2022-08-04T09:22:15.675Z,1.75
2022-08-04T09:25:02.958Z,2.00
2022-08-04T09:27:46.908Z,1.80
2022-08-04T09:30:19.046Z,1.73
2022-08-04T09:33:44.805Z,1.90
2022-08-04T09:39:19.197Z,1.60
2022-08-04T09:41:56.610Z,1.80
2022-08-04T09:44:55.276Z,1.88
2022-08-04T09:47:40.666Z,2.08
2022-08-04T09:50:24.898Z,1.58
2022-08-04T09:53:28.592Z,1.70
2022-08-04T09:56:06.065Z,1.90
2022-08-04T09:58:44.975Z,1.52
2022-08-04T10:01:31.952Z,1.70
2022-08-04T10:04:04.183Z,2.03
2022-08-04T10:06:48.168Z,1.77
2022-08-04T10:09:43.232Z,1.77
2022-08-04T10:12:29.444Z,1.67
2022-08-04T10:15:19.597Z,1.80
2022-08-04T10:18:17.409Z,2.03
2022-08-04T10:21:08.913Z,1.77
2022-08-04T10:23:56.025Z,1.63
2022-08-04T10:26:35.334Z,1.88
2022-08-04T10:29:07.010Z,1.90
2022-08-04T10:31:39.444Z,1.80
2022-08-04T10:34:12.354Z,1.90
2022-08-04T10:36:54.216Z,2.10
2022-08-04T10:39:43.406Z,1.80
2022-08-04T10:42:11.780Z,2.22
2022-08-04T10:45:09.708Z,2.20
2022-08-04T10:47:45.227Z,1.70
2022-08-04T10:50:23.615Z,1.75
2022-08-04T10:53:01.196Z,2.10
2022-08-04T10:56:05.676Z,1.90
2022-08-04T10:58:25.093Z,2.00
2022-08-04T11:02:01.624Z,1.95
2022-08-04T11:04:27.591Z,1.80
2022-08-04T11:06:56.533Z,1.98
2022-08-04T11:09:23.303Z,2.00
2022-08-04T11:12:00.567Z,1.98
2022-08-04T11:14:45.298Z,1.80
2022-08-04T11:17:20.599Z,1.90
2022-08-04T11:20:07.659Z,1.95
2022-08-04T11:25:35.932Z,2.33
2022-08-04T11:28:05.641Z,2.08
2022-08-04T11:30:40.580Z,1.92
2022-08-04T11:33:31.504Z,1.92
2022-08-04T11:36:30.620Z,2.10
2022-08-04T11:39:18.243Z,1.88
2022-08-04T11:42:05.497Z,1.77
2022-08-04T11:44:37.771Z,2.10
2022-08-04T11:47:47.675Z,2.20
2022-08-04T11:50:34.856Z,2.03
2022-08-04T11:53:03.322Z,2.00
2022-08-04T11:55:31.609Z,2.33
2022-08-04T11:57:58.532Z,2.42
2022-08-04T12:00:28.185Z,1.90
2022-08-04T12:03:06.629Z,2.00
2022-08-04T12:05:44.256Z,2.00
2022-08-04T12:08:35.416Z,1.92
2022-08-04T12:11:29.227Z,2.30
2022-08-04T12:14:14.723Z,2.20
2022-08-04T12:16:48.651Z,2.38
2022-08-04T12:19:37.361Z,1.93
2022-08-04T12:22:22.834Z,2.05
2022-08-04T12:25:03.846Z,2.58
2022-08-04T12:27:43.229Z,2.20
2022-08-04T12:30:59.211Z,2.10
2022-08-04T12:33:06.961Z,2.13
2022-08-04T12:35:57.535Z,1.73
2022-08-04T12:38:34.675Z,1.83
2022-08-04T12:41:05.140Z,1.80
2022-08-04T12:43:38.920Z,1.83
2022-08-04T12:46:22.742Z,2.08
2022-08-04T12:48:50.485Z,1.70
2022-08-04T12:52:06.085Z,1.70
2022-08-04T12:54:07.570Z,1.90
2022-08-04T12:56:35.441Z,1.90
2022-08-04T12:59:07.099Z,1.70
2022-08-04T13:02:10.105Z,2.03
2022-08-04T13:04:34.687Z,1.67
2022-08-04T13:07:26.540Z,1.77
2022-08-04T13:09:53.483Z,1.70
2022-08-04T13:12:32.476Z,1.65
2022-08-04T13:15:17.572Z,1.88
2022-08-04T13:20:16.074Z,1.88
2022-08-04T13:22:46.296Z,1.60
2022-08-04T13:26:41.729Z,2.22
2022-08-04T13:28:02.301Z,1.88
2022-08-04T13:30:32.709Z,1.52
2022-08-04T13:33:02.412Z,2.00
2022-08-04T13:35:55.324Z,1.77
2022-08-04T13:38:19.048Z,1.80
2022-08-04T13:40:46.531Z,1.98
2022-08-04T13:43:49.992Z,1.58
2022-08-04T13:46:28.744Z,1.90
2022-08-04T13:49:25.812Z,1.80
2022-08-04T13:51:57.867Z,1.60
2022-08-04T13:54:35.112Z,1.77
2022-08-04T13:57:24.120Z,1.80
2022-08-04T13:59:54.722Z,1.77
2022-08-04T14:02:44.964Z,1.77
2022-08-04T14:05:24.334Z,1.75
2022-08-04T14:07:58.884Z,1.92
2022-08-04T14:10:25.594Z,2.28
2022-08-04T14:12:53.596Z,2.00
2022-08-04T14:16:01.117Z,1.92
2022-08-04T14:18:32.644Z,1.80
2022-08-04T14:21:05.370Z,1.98
2022-08-04T14:24:00.268Z,1.83
2022-08-04T14:26:35.337Z,2.05
2022-08-04T14:29:26.742Z,1.75
2022-08-04T14:32:12.430Z,1.70
2022-08-04T14:34:44.869Z,1.85
2022-08-04T14:37:18.268Z,1.90
2022-08-04T14:40:08.901Z,1.92
2022-08-04T14:42:54.496Z,1.80
2022-08-04T14:45:32.212Z,1.55
2022-08-04T14:47:59.616Z,1.85
2022-08-04T14:50:38.871Z,1.80
2022-08-04T14:53:11.094Z,1.48
2022-08-04T14:55:39.521Z,2.08
2022-08-04T14:58:34.355Z,1.80
2022-08-04T15:00:57.322Z,2.00
2022-08-04T15:03:24.722Z,1.90
2022-08-04T15:06:01.700Z,1.95
2022-08-04T15:08:32.752Z,2.00
2022-08-04T15:11:03.300Z,1.92
2022-08-04T15:13:32.332Z,2.10
2022-08-04T15:16:06.205Z,2.10
2022-08-04T15:18:37.133Z,1.80
2022-08-04T15:21:05.679Z,2.20
2022-08-04T15:23:38.685Z,2.30
2022-08-04T15:26:10.421Z,2.87
2022-08-04T15:28:39.879Z,2.33
2022-08-04T15:31:10.525Z,2.30
2022-08-04T15:33:56.945Z,2.65
2022-08-04T15:36:35.872Z,2.55
2022-08-04T15:39:11.834Z,2.72
2022-08-04T15:41:58.350Z,2.72
2022-08-04T15:44:37.249Z,2.78
2022-08-04T15:47:03.849Z,2.78
2022-08-04T15:49:30.921Z,2.65
2022-08-04T15:52:02.718Z,2.38
2022-08-04T15:54:32.724Z,2.65
2022-08-04T15:57:01.247Z,3.30
2022-08-04T16:00:00.503Z,3.17
2022-08-04T16:02:33.271Z,2.88
2022-08-04T16:05:20.194Z,2.90
2022-08-04T16:07:54.350Z,2.58
2022-08-04T16:10:29.818Z,3.47
2022-08-04T16:12:59.904Z,2.70
2022-08-04T16:15:55.291Z,2.70
2022-08-04T16:18:31.349Z,2.78
2022-08-04T16:21:03.086Z,2.88
2022-08-04T16:24:00.665Z,2.08
2022-08-04T16:26:38.195Z,2.40
2022-08-04T16:29:39.728Z,2.60
2022-08-04T16:32:07.294Z,2.42
2022-08-04T16:34:53.891Z,2.20
2022-08-04T16:37:24.807Z,2.58
2022-08-04T16:40:46.494Z,2.45
2022-08-04T16:43:18.311Z,2.50
2022-08-04T16:45:52.598Z,2.17
2022-08-04T16:48:27.343Z,2.53
2022-08-04T16:51:07.249Z,2.25
2022-08-04T16:54:03.709Z,2.50
2022-08-04T16:56:29.039Z,2.70
2022-08-04T16:58:56.255Z,2.97
2022-08-04T17:01:33.632Z,2.72
2022-08-04T17:04:06.908Z,2.80
2022-08-04T17:06:39.798Z,3.00
2022-08-04T17:09:11.727Z,2.95
2022-08-04T17:11:38.566Z,2.60
2022-08-04T17:14:06.518Z,2.67
2022-08-04T17:16:40.210Z,3.55
2022-08-04T17:19:24.263Z,3.13
2022-08-04T17:22:05.201Z,3.15
2022-08-04T17:24:38.205Z,3.25
2022-08-04T17:28:08.657Z,2.80
2022-08-04T17:29:52.908Z,2.67
2022-08-04T17:32:22.297Z,3.33
2022-08-04T17:34:52.034Z,3.22
2022-08-04T17:37:40.086Z,2.92
2022-08-04T17:40:10.187Z,2.97
2022-08-04T17:42:39.838Z,2.80
2022-08-04T17:48:09.264Z,3.25
2022-08-04T17:50:36.599Z,2.70
2022-08-04T17:53:12.030Z,2.63
2022-08-04T17:55:46.961Z,2.45
2022-08-04T17:58:20.940Z,2.63
2022-08-04T18:01:10.627Z,2.50
2022-08-04T18:03:45.086Z,2.55
2022-08-04T18:06:19.981Z,2.38
2022-08-04T18:08:57.701Z,2.42
2022-08-04T18:11:29.624Z,2.50
2022-08-04T18:14:09.809Z,2.20
2022-08-04T18:16:45.864Z,2.55
2022-08-04T18:19:14.779Z,2.40
2022-08-04T18:21:46.659Z,2.75
2022-08-04T18:24:34.276Z,2.37
2022-08-04T18:27:17.019Z,2.70
2022-08-04T18:30:15.020Z,2.45
2022-08-04T18:32:33.459Z,2.47
2022-08-04T18:35:03.449Z,2.53
2022-08-04T18:38:05.770Z,2.35
2022-08-04T18:40:26.678Z,2.42
2022-08-04T18:42:59.981Z,2.22
2022-08-04T18:45:33.917Z,2.53
2022-08-04T18:48:01.865Z,2.45
2022-08-04T18:51:09.207Z,2.70
2022-08-04T18:53:16.605Z,2.80
2022-08-04T18:55:57.185Z,2.30
2022-08-04T18:58:27.084Z,2.10
2022-08-04T19:00:56.021Z,2.67
2022-08-04T19:03:23.562Z,2.15
2022-08-04T19:05:51.679Z,2.25
2022-08-04T19:08:34.193Z,2.08
2022-08-04T19:11:28.675Z,2.40
2022-08-04T19:13:54.477Z,2.88
2022-08-04T19:16:37.350Z,2.40
2022-08-04T19:19:07.516Z,2.38
2022-08-04T19:22:01.686Z,2.38
2022-08-04T19:24:32.864Z,2.20
2022-08-04T19:27:06.724Z,2.20
2022-08-04T19:29:37.724Z,2.15
2022-08-04T19:32:14.041Z,2.28
2022-08-04T19:34:45.826Z,2.55
2022-08-04T19:37:19.906Z,2.45
2022-08-04T19:40:00.905Z,2.40
2022-08-04T19:42:28.041Z,2.17
2022-08-04T19:44:54.947Z,2.25
2022-08-04T19:48:11.307Z,2.50
2022-08-04T19:50:10.490Z,2.33
2022-08-04T19:52:37.564Z,2.50
2022-08-04T19:55:10.093Z,2.70
2022-08-04T19:57:45.983Z,2.33
2022-08-04T20:00:26.156Z,2.50
2022-08-04T20:03:11.208Z,2.10
2022-08-04T20:05:54.294Z,2.38
2022-08-04T20:08:31.320Z,2.40
2022-08-04T20:10:59.391Z,1.98
2022-08-04T20:13:36.917Z,2.30
2022-08-04T20:16:26.189Z,2.22
2022-08-04T20:18:55.444Z,2.50
2022-08-04T20:21:36.493Z,2.10
2022-08-04T20:24:37.647Z,2.65
2022-08-04T20:26:59.428Z,2.30
2022-08-04T20:29:40.539Z,2.80
2022-08-04T20:32:09.749Z,2.15
2022-08-04T20:34:37.510Z,2.47
2022-08-04T20:37:04.502Z,2.10
2022-08-04T20:39:31.437Z,2.25
2022-08-04T20:41:58.568Z,2.40
2022-08-04T20:44:25.609Z,2.30
2022-08-04T20:46:52.395Z,2.38
2022-08-04T20:49:21.161Z,2.50
2022-08-04T20:52:12.154Z,2.38
2022-08-04T20:54:42.761Z,2.38
2022-08-04T20:57:16.878Z,2.20
2022-08-04T20:59:59.594Z,2.15
2022-08-04T21:02:27.020Z,2.67
2022-08-04T21:04:53.919Z,2.22
2022-08-04T21:07:22.255Z,2.33
2022-08-04T21:09:52.219Z,2.28
2022-08-04T21:12:27.901Z,3.53
2022-08-04T21:15:01.460Z,2.22
2022-08-04T21:17:57.053Z,2.22
2022-08-04T21:20:28.377Z,2.45
2022-08-04T21:22:59.396Z,2.30
2022-08-04T21:25:28.792Z,2.58
2022-08-04T21:27:58.947Z,2.30
2022-08-04T21:30:30.566Z,2.35
2022-08-04T21:32:57.429Z,2.40
2022-08-04T21:35:36.926Z,2.28
2022-08-04T21:38:04.198Z,2.80
2022-08-04T21:40:53.533Z,2.95
2022-08-04T21:43:27.220Z,2.70
2022-08-04T21:45:55.028Z,3.03
2022-08-04T21:48:22.790Z,2.97
2022-08-04T21:50:50.800Z,2.95
2022-08-04T21:53:20.453Z,2.90
2022-08-04T21:56:05.679Z,3.55
2022-08-04T21:58:34.556Z,2.95
2022-08-04T22:01:01.678Z,3.55
2022-08-04T22:03:52.294Z,3.92
2022-08-04T22:06:28.350Z,3.70
2022-08-04T22:08:56.652Z,3.92
2022-08-04T22:11:23.228Z,4.07
2022-08-04T22:14:11.065Z,4.00
2022-08-04T22:16:39.992Z,3.97
2022-08-04T22:19:08.786Z,4.60
2022-08-04T22:21:39.189Z,4.72
2022-08-04T22:24:13.835Z,5.50
2022-08-04T22:26:41.008Z,4.35
2022-08-04T22:29:14.110Z,4.55
2022-08-04T22:31:53.235Z,4.82
2022-08-04T22:34:27.887Z,5.00
2022-08-04T22:36:57.058Z,5.20
2022-08-04T22:39:27.403Z,5.13
2022-08-04T22:42:04.140Z,5.65
2022-08-04T22:44:33.055Z,5.40
2022-08-04T22:47:01.126Z,5.35
2022-08-04T22:49:31.823Z,4.95
2022-08-04T22:51:59.257Z,5.65
2022-08-04T22:54:29.714Z,5.65
2022-08-04T22:56:58.534Z,5.28
2022-08-04T22:59:26.763Z,5.60
2022-08-04T23:01:59.672Z,4.68
2022-08-04T23:04:30.164Z,5.40
2022-08-04T23:06:57.440Z,5.82
2022-08-04T23:09:49.363Z,5.93
2022-08-04T23:12:27.921Z,6.05
2022-08-04T23:14:56.570Z,6.45
2022-08-04T23:17:24.814Z,6.15
2022-08-04T23:19:57.516Z,6.40
2022-08-04T23:22:41.481Z,6.15
2022-08-04T23:25:15.805Z,6.93
2022-08-04T23:27:50.425Z,6.13
2022-08-04T23:30:24.631Z,6.50
2022-08-04T23:32:56.169Z,6.47
2022-08-04T23:35:22.923Z,6.70
2022-08-04T23:37:56.763Z,6.95
2022-08-04T23:40:34.377Z,6.70
2022-08-04T23:43:12.213Z,7.05
2022-08-04T23:46:07.234Z,5.93
2022-08-04T23:48:38.880Z,6.40
2022-08-04T23:51:13.992Z,6.55
2022-08-04T23:54:02.628Z,6.50
2022-08-04T23:56:30.770Z,6.28
2022-08-04T23:59:00.067Z,6.45
